sensor_id;sensor_type;location;lat;lon;timestamp;pressure;altitude;pressure_sealevel;temperature;humidity
24234;BME280;12365;43.554;1.388;2022-11-20T00:00:43;100172.72;;;9.49;63.65
24234;BME280;12365;43.554;1.388;2022-11-20T00:03:08;100177.16;;;9.50;63.73
24234;BME280;12365;43.554;1.388;2022-11-20T00:05:34;100170.13;;;9.49;63.80
24234;BME280;12365;43.554;1.388;2022-11-20T00:07:59;100171.75;;;9.47;64.02
24234;BME280;12365;43.554;1.388;2022-11-20T00:10:24;100174.44;;;9.49;63.97
24234;BME280;12365;43.554;1.388;2022-11-20T00:12:50;100168.34;;;9.48;63.93
24234;BME280;12365;43.554;1.388;2022-11-20T00:15:15;100164.91;;;9.49;63.93
24234;BME280;12365;43.554;1.388;2022-11-20T00:17:41;100170.13;;;9.49;63.87
24234;BME280;12365;43.554;1.388;2022-11-20T00:20:07;100169.22;;;9.49;64.00
24234;BME280;12365;43.554;1.388;2022-11-20T00:22:32;100174.53;;;9.50;63.90
24234;BME280;12365;43.554;1.388;2022-11-20T00:24:58;100178.94;;;9.51;63.77
24234;BME280;12365;43.554;1.388;2022-11-20T00:27:23;100174.53;;;9.50;64.09
24234;BME280;12365;43.554;1.388;2022-11-20T00:29:49;100171.03;;;9.50;63.80
24234;BME280;12365;43.554;1.388;2022-11-20T00:32:14;100171.94;;;9.50;63.94
24234;BME280;12365;43.554;1.388;2022-11-20T00:34:40;100170.22;;;9.51;63.87
24234;BME280;12365;43.554;1.388;2022-11-20T00:37:05;100171.94;;;9.50;63.91
24234;BME280;12365;43.554;1.388;2022-11-20T00:39:30;100171.03;;;9.50;63.84
24234;BME280;12365;43.554;1.388;2022-11-20T00:41:56;100167.44;;;9.48;63.91
24234;BME280;12365;43.554;1.388;2022-11-20T00:44:21;100170.22;;;9.51;63.82
24234;BME280;12365;43.554;1.388;2022-11-20T00:46:47;100168.50;;;9.51;64.11
24234;BME280;12365;43.554;1.388;2022-11-20T00:49:12;100168.72;;;9.54;63.85
24234;BME280;12365;43.554;1.388;2022-11-20T00:51:37;100176.53;;;9.54;63.86
24234;BME280;12365;43.554;1.388;2022-11-20T00:54:03;100179.13;;;9.54;63.95
24234;BME280;12365;43.554;1.388;2022-11-20T00:56:28;100174.72;;;9.53;63.70
24234;BME280;12365;43.554;1.388;2022-11-20T00:58:54;100178.03;;;9.51;64.09
24234;BME280;12365;43.554;1.388;2022-11-20T01:01:25;100174.53;;;9.50;63.82
24234;BME280;12365;43.554;1.388;2022-11-20T01:03:51;100175.16;;;9.46;63.81
24234;BME280;12365;43.554;1.388;2022-11-20T01:08:52;100173.00;;;9.39;63.94
24234;BME280;12365;43.554;1.388;2022-11-20T01:11:20;100179.75;;;9.36;64.10
24234;BME280;12365;43.554;1.388;2022-11-20T01:13:47;100167.28;;;9.30;64.33
24234;BME280;12365;43.554;1.388;2022-11-20T01:16:16;100168.00;;;9.27;64.08
24234;BME280;12365;43.554;1.388;2022-11-20T01:18:44;100174.09;;;9.28;64.15
24234;BME280;12365;43.554;1.388;2022-11-20T01:21:13;100170.50;;;9.26;64.19
24234;BME280;12365;43.554;1.388;2022-11-20T01:23:40;100177.31;;;9.24;63.98
24234;BME280;12365;43.554;1.388;2022-11-20T01:26:09;100179.72;;;9.21;63.89
24234;BME280;12365;43.554;1.388;2022-11-20T01:28:35;100182.25;;;9.19;64.23
24234;BME280;12365;43.554;1.388;2022-11-20T01:31:02;100177.66;;;9.15;64.21
24234;BME280;12365;43.554;1.388;2022-11-20T01:33:35;100181.88;;;9.13;64.16
24234;BME280;12365;43.554;1.388;2022-11-20T01:36:06;100171.19;;;9.08;63.90
24234;BME280;12365;43.554;1.388;2022-11-20T01:38:31;100177.81;;;9.03;64.07
24234;BME280;12365;43.554;1.388;2022-11-20T01:40:57;100175.75;;;8.98;63.92
24234;BME280;12365;43.554;1.388;2022-11-20T01:43:23;100179.78;;;8.93;63.77
24234;BME280;12365;43.554;1.388;2022-11-20T01:48:32;100185.13;;;8.81;64.09
24234;BME280;12365;43.554;1.388;2022-11-20T01:50:59;100183.16;;;8.77;63.88
24234;BME280;12365;43.554;1.388;2022-11-20T01:53:30;100182.88;;;8.72;63.85
24234;BME280;12365;43.554;1.388;2022-11-20T01:55:59;100187.88;;;8.69;63.89
24234;BME280;12365;43.554;1.388;2022-11-20T01:58:30;100181.50;;;8.64;63.91
24234;BME280;12365;43.554;1.388;2022-11-20T02:00:57;100187.41;;;8.61;63.77
24234;BME280;12365;43.554;1.388;2022-11-20T02:03:23;100188.81;;;8.56;63.87
24234;BME280;12365;43.554;1.388;2022-11-20T02:08:30;100195.34;;;8.50;63.92
24234;BME280;12365;43.554;1.388;2022-11-20T02:10:55;100190.72;;;8.45;63.93
24234;BME280;12365;43.554;1.388;2022-11-20T02:13:21;100197.22;;;8.39;63.62
24234;BME280;12365;43.554;1.388;2022-11-20T02:16:09;100195.16;;;8.33;63.73
24234;BME280;12365;43.554;1.388;2022-11-20T02:18:35;100196.63;;;8.30;63.74
24234;BME280;12365;43.554;1.388;2022-11-20T02:21:07;100202.53;;;8.27;63.85
24234;BME280;12365;43.554;1.388;2022-11-20T02:24:01;100202.25;;;8.22;63.82
24234;BME280;12365;43.554;1.388;2022-11-20T02:26:31;100202.06;;;8.19;63.90
24234;BME280;12365;43.554;1.388;2022-11-20T02:28:58;100200.09;;;8.15;63.98
24234;BME280;12365;43.554;1.388;2022-11-20T02:31:25;100205.97;;;8.13;63.79
24234;BME280;12365;43.554;1.388;2022-11-20T02:33:57;100197.06;;;8.09;63.89
24234;BME280;12365;43.554;1.388;2022-11-20T02:36:24;100196.97;;;8.08;63.82
24234;BME280;12365;43.554;1.388;2022-11-20T02:38:51;100201.06;;;8.04;63.99
24234;BME280;12365;43.554;1.388;2022-11-20T02:41:17;100197.47;;;8.02;63.86
24234;BME280;12365;43.554;1.388;2022-11-20T02:43:42;100192.91;;;7.98;64.02
24234;BME280;12365;43.554;1.388;2022-11-20T02:46:08;100195.50;;;7.98;63.83
24234;BME280;12365;43.554;1.388;2022-11-20T02:48:33;100196.19;;;7.95;63.80
24234;BME280;12365;43.554;1.388;2022-11-20T02:50:59;100197.78;;;7.93;63.64
24234;BME280;12365;43.554;1.388;2022-11-20T02:53:25;100202.88;;;7.92;63.95
24234;BME280;12365;43.554;1.388;2022-11-20T02:55:50;100199.19;;;7.88;63.81
24234;BME280;12365;43.554;1.388;2022-11-20T02:58:15;100197.38;;;7.87;63.83
24234;BME280;12365;43.554;1.388;2022-11-20T03:00:41;100209.47;;;7.87;63.90
24234;BME280;12365;43.554;1.388;2022-11-20T03:03:06;100210.28;;;7.86;63.82
24234;BME280;12365;43.554;1.388;2022-11-20T03:05:32;100205.09;;;7.86;63.82
24234;BME280;12365;43.554;1.388;2022-11-20T03:07:57;100198.19;;;7.86;63.81
24234;BME280;12365;43.554;1.388;2022-11-20T03:10:22;100199.00;;;7.85;63.84
24234;BME280;12365;43.554;1.388;2022-11-20T03:12:53;100206.69;;;7.84;63.70
24234;BME280;12365;43.554;1.388;2022-11-20T03:15:18;100190.91;;;7.80;63.78
24234;BME280;12365;43.554;1.388;2022-11-20T03:17:44;100192.38;;;7.77;63.71
24234;BME280;12365;43.554;1.388;2022-11-20T03:20:10;100194.06;;;7.76;63.69
24234;BME280;12365;43.554;1.388;2022-11-20T03:22:35;100193.69;;;7.70;63.67
24234;BME280;12365;43.554;1.388;2022-11-20T03:25:00;100194.06;;;7.63;63.45
24234;BME280;12365;43.554;1.388;2022-11-20T03:27:26;100186.09;;;7.60;63.73
24234;BME280;12365;43.554;1.388;2022-11-20T03:29:51;100184.97;;;7.56;63.80
24234;BME280;12365;43.554;1.388;2022-11-20T03:32:16;100189.06;;;7.53;63.51
24234;BME280;12365;43.554;1.388;2022-11-20T03:34:42;100190.47;;;7.48;63.87
24234;BME280;12365;43.554;1.388;2022-11-20T03:37:07;100190.28;;;7.45;63.61
24234;BME280;12365;43.554;1.388;2022-11-20T03:39:32;100182.38;;;7.43;63.83
24234;BME280;12365;43.554;1.388;2022-11-20T03:41:58;100173.69;;;7.43;63.63
24234;BME280;12365;43.554;1.388;2022-11-20T03:44:23;100175.38;;;7.42;63.56
24234;BME280;12365;43.554;1.388;2022-11-20T03:46:49;100170.97;;;7.41;63.65
24234;BME280;12365;43.554;1.388;2022-11-20T03:49:14;100181.28;;;7.40;63.74
24234;BME280;12365;43.554;1.388;2022-11-20T03:51:40;100177.69;;;7.37;63.70
24234;BME280;12365;43.554;1.388;2022-11-20T03:54:07;100182.75;;;7.36;63.55
24234;BME280;12365;43.554;1.388;2022-11-20T03:56:35;100178.16;;;7.32;63.76
24234;BME280;12365;43.554;1.388;2022-11-20T03:59:03;100174.66;;;7.31;63.59
24234;BME280;12365;43.554;1.388;2022-11-20T04:01:34;100178.88;;;7.29;63.30
24234;BME280;12365;43.554;1.388;2022-11-20T04:04:00;100183.03;;;7.27;63.49
24234;BME280;12365;43.554;1.388;2022-11-20T04:06:28;100176.84;;;7.25;63.43
24234;BME280;12365;43.554;1.388;2022-11-20T04:08:55;100176.84;;;7.25;63.81
24234;BME280;12365;43.554;1.388;2022-11-20T04:11:27;100178.44;;;7.23;63.42
24234;BME280;12365;43.554;1.388;2022-11-20T04:13:55;100175.63;;;7.20;63.50
24234;BME280;12365;43.554;1.388;2022-11-20T04:16:22;100166.84;;;7.18;63.71
24234;BME280;12365;43.554;1.388;2022-11-20T04:18:54;100170.34;;;7.19;63.75
24234;BME280;12365;43.554;1.388;2022-11-20T04:21:20;100158.84;;;7.15;63.37
24234;BME280;12365;43.554;1.388;2022-11-20T04:23:46;100157.97;;;7.14;63.34
24234;BME280;12365;43.554;1.388;2022-11-20T04:26:12;100155.25;;;7.13;63.58
24234;BME280;12365;43.554;1.388;2022-11-20T04:28:38;100158.66;;;7.12;63.53
24234;BME280;12365;43.554;1.388;2022-11-20T04:31:08;100162.03;;;7.11;63.48
24234;BME280;12365;43.554;1.388;2022-11-20T04:33:35;100164.63;;;7.11;63.35
24234;BME280;12365;43.554;1.388;2022-11-20T04:36:04;100161.03;;;7.09;63.35
24234;BME280;12365;43.554;1.388;2022-11-20T04:38:29;100151.25;;;7.05;63.27
24234;BME280;12365;43.554;1.388;2022-11-20T04:41:03;100164.09;;;7.03;63.66
24234;BME280;12365;43.554;1.388;2022-11-20T04:43:30;100155.22;;;7.00;63.46
24234;BME280;12365;43.554;1.388;2022-11-20T04:45:56;100161.19;;;6.99;63.29
24234;BME280;12365;43.554;1.388;2022-11-20T04:48:22;100156.69;;;6.96;63.35
24234;BME280;12365;43.554;1.388;2022-11-20T04:50:48;100163.50;;;6.94;63.50
24234;BME280;12365;43.554;1.388;2022-11-20T04:53:13;100159.00;;;6.91;63.21
24234;BME280;12365;43.554;1.388;2022-11-20T04:55:39;100169.16;;;6.88;63.44
24234;BME280;12365;43.554;1.388;2022-11-20T04:58:04;100159.38;;;6.84;63.20
24234;BME280;12365;43.554;1.388;2022-11-20T05:00:30;100163.44;;;6.81;63.54
24234;BME280;12365;43.554;1.388;2022-11-20T05:02:55;100150.38;;;6.79;63.16
24234;BME280;12365;43.554;1.388;2022-11-20T05:05:20;100157.28;;;6.79;63.21
24234;BME280;12365;43.554;1.388;2022-11-20T05:07:46;100150.06;;;6.75;63.28
24234;BME280;12365;43.554;1.388;2022-11-20T05:10:11;100155.38;;;6.76;63.62
24234;BME280;12365;43.554;1.388;2022-11-20T05:12:37;100157.03;;;6.76;63.36
24234;BME280;12365;43.554;1.388;2022-11-20T05:15:02;100157.84;;;6.75;63.24
24234;BME280;12365;43.554;1.388;2022-11-20T05:17:28;100146.94;;;6.67;63.54
24234;BME280;12365;43.554;1.388;2022-11-20T05:19:53;100154.22;;;6.72;63.26
24234;BME280;12365;43.554;1.388;2022-11-20T05:22:18;100162.69;;;6.70;62.92
24234;BME280;12365;43.554;1.388;2022-11-20T05:24:44;100163.50;;;6.69;63.68
24234;BME280;12365;43.554;1.388;2022-11-20T05:27:09;100163.38;;;6.67;63.16
24234;BME280;12365;43.554;1.388;2022-11-20T05:29:34;100160.78;;;6.67;63.41
24234;BME280;12365;43.554;1.388;2022-11-20T05:32:00;100158.88;;;6.65;63.31
24234;BME280;12365;43.554;1.388;2022-11-20T05:34:25;100153.69;;;6.65;63.23
24234;BME280;12365;43.554;1.388;2022-11-20T05:36:50;100151.91;;;6.64;63.07
24234;BME280;12365;43.554;1.388;2022-11-20T05:39:16;100151.91;;;6.64;63.26
24234;BME280;12365;43.554;1.388;2022-11-20T05:41:41;100156.19;;;6.63;63.36
24234;BME280;12365;43.554;1.388;2022-11-20T05:44:06;100156.19;;;6.63;63.19
24234;BME280;12365;43.554;1.388;2022-11-20T05:46:32;100155.28;;;6.63;63.15
24234;BME280;12365;43.554;1.388;2022-11-20T05:48:57;100154.50;;;6.64;63.34
24234;BME280;12365;43.554;1.388;2022-11-20T05:51:25;100151.81;;;6.62;62.89
24234;BME280;12365;43.554;1.388;2022-11-20T05:53:51;100151.81;;;6.62;62.97
24234;BME280;12365;43.554;1.388;2022-11-20T05:56:18;100148.31;;;6.62;63.06
24234;BME280;12365;43.554;1.388;2022-11-20T05:58:44;100147.31;;;6.60;63.32
24234;BME280;12365;43.554;1.388;2022-11-20T06:01:16;100148.09;;;6.59;63.28
24234;BME280;12365;43.554;1.388;2022-11-20T06:03:42;100146.22;;;6.56;63.04
24234;BME280;12365;43.554;1.388;2022-11-20T06:06:11;100152.97;;;6.54;63.14
24234;BME280;12365;43.554;1.388;2022-11-20T06:08:36;100158.03;;;6.53;63.18
24234;BME280;12365;43.554;1.388;2022-11-20T06:11:06;100152.84;;;6.53;63.49
24234;BME280;12365;43.554;1.388;2022-11-20T06:13:32;100169.22;;;6.51;63.06
24234;BME280;12365;43.554;1.388;2022-11-20T06:15:57;100163.81;;;6.48;63.10
24234;BME280;12365;43.554;1.388;2022-11-20T06:18:23;100170.66;;;6.48;63.17
24234;BME280;12365;43.554;1.388;2022-11-20T06:20:59;100166.16;;;6.45;63.16
24234;BME280;12365;43.554;1.388;2022-11-20T06:23:25;100166.06;;;6.44;62.91
24234;BME280;12365;43.554;1.388;2022-11-20T06:25:50;100155.78;;;6.45;63.18
24234;BME280;12365;43.554;1.388;2022-11-20T06:28:15;100161.56;;;6.41;62.84
24234;BME280;12365;43.554;1.388;2022-11-20T06:30:44;100160.56;;;6.39;62.91
24234;BME280;12365;43.554;1.388;2022-11-20T06:33:10;100162.13;;;6.37;63.19
24234;BME280;12365;43.554;1.388;2022-11-20T06:35:35;100155.16;;;6.36;63.22
24234;BME280;12365;43.554;1.388;2022-11-20T06:38:00;100163.84;;;6.37;63.02
24234;BME280;12365;43.554;1.388;2022-11-20T06:40:26;100148.16;;;6.35;62.92
24234;BME280;12365;43.554;1.388;2022-11-20T06:42:53;100155.16;;;6.36;63.23
24234;BME280;12365;43.554;1.388;2022-11-20T06:45:20;100161.94;;;6.34;62.99
24234;BME280;12365;43.554;1.388;2022-11-20T06:47:45;100165.31;;;6.33;63.09
24234;BME280;12365;43.554;1.388;2022-11-20T06:50:10;100159.00;;;6.29;63.09
24234;BME280;12365;43.554;1.388;2022-11-20T06:52:36;100161.50;;;6.28;62.87
24234;BME280;12365;43.554;1.388;2022-11-20T06:55:01;100160.50;;;6.26;63.22
24234;BME280;12365;43.554;1.388;2022-11-20T06:57:27;100163.84;;;6.25;62.73
24234;BME280;12365;43.554;1.388;2022-11-20T06:59:52;100165.56;;;6.24;62.73
24234;BME280;12365;43.554;1.388;2022-11-20T07:02:17;100159.59;;;6.25;63.28
24234;BME280;12365;43.554;1.388;2022-11-20T07:04:43;100160.59;;;6.27;63.18
24234;BME280;12365;43.554;1.388;2022-11-20T07:07:08;100157.22;;;6.28;63.13
24234;BME280;12365;43.554;1.388;2022-11-20T07:09:34;100157.22;;;6.28;62.85
24234;BME280;12365;43.554;1.388;2022-11-20T07:11:59;100159.91;;;6.30;63.16
24234;BME280;12365;43.554;1.388;2022-11-20T07:14:25;100167.00;;;6.33;62.86
24234;BME280;12365;43.554;1.388;2022-11-20T07:16:51;100167.31;;;6.37;63.04
24234;BME280;12365;43.554;1.388;2022-11-20T07:19:16;100173.66;;;6.41;62.76
24234;BME280;12365;43.554;1.388;2022-11-20T07:21:41;100166.97;;;6.44;62.63
24234;BME280;12365;43.554;1.388;2022-11-20T07:24:07;100172.56;;;6.50;62.91
24234;BME280;12365;43.554;1.388;2022-11-20T07:26:32;100178.97;;;6.56;62.86
24234;BME280;12365;43.554;1.388;2022-11-20T07:28:58;100175.94;;;6.61;63.09
24234;BME280;12365;43.554;1.388;2022-11-20T07:31:23;100180.06;;;6.71;63.13
24234;BME280;12365;43.554;1.388;2022-11-20T07:33:48;100173.91;;;6.82;63.11
24234;BME280;12365;43.554;1.388;2022-11-20T07:36:14;100170.47;;;6.95;62.54
24234;BME280;12365;43.554;1.388;2022-11-20T07:38:39;100175.13;;;7.12;62.91
24234;BME280;12365;43.554;1.388;2022-11-20T07:41:05;100177.03;;;7.28;62.48
24234;BME280;12365;43.554;1.388;2022-11-20T07:43:30;100186.97;;;7.47;62.59
24234;BME280;12365;43.554;1.388;2022-11-20T07:45:59;100174.50;;;7.68;62.58
24234;BME280;12365;43.554;1.388;2022-11-20T07:48:24;100180.19;;;7.89;62.58
24234;BME280;12365;43.554;1.388;2022-11-20T07:50:54;100185.91;;;8.10;62.51
24234;BME280;12365;43.554;1.388;2022-11-20T07:53:19;100186.44;;;8.33;62.34
24234;BME280;12365;43.554;1.388;2022-11-20T07:55:46;100185.13;;;8.53;62.22
24234;BME280;12365;43.554;1.388;2022-11-20T07:58:12;100184.66;;;8.73;62.20
24234;BME280;12365;43.554;1.388;2022-11-20T08:00:38;100193.38;;;8.88;62.00
24234;BME280;12365;43.554;1.388;2022-11-20T08:03:04;100189.66;;;8.98;61.90
24234;BME280;12365;43.554;1.388;2022-11-20T08:05:30;100195.03;;;9.01;62.01
24234;BME280;12365;43.554;1.388;2022-11-20T08:07:55;100199.44;;;9.02;61.89
24234;BME280;12365;43.554;1.388;2022-11-20T08:10:20;100197.38;;;8.97;61.97
24234;BME280;12365;43.554;1.388;2022-11-20T08:12:48;100202.31;;;8.92;62.02
24234;BME280;12365;43.554;1.388;2022-11-20T08:15:32;100192.59;;;8.89;61.99
24234;BME280;12365;43.554;1.388;2022-11-20T08:20:27;100199.53;;;8.89;61.92
24234;BME280;12365;43.554;1.388;2022-11-20T08:22:57;100200.31;;;8.88;62.10
24234;BME280;12365;43.554;1.388;2022-11-20T08:25:22;100195.75;;;8.84;62.04
24234;BME280;12365;43.554;1.388;2022-11-20T08:27:48;100214.50;;;8.93;62.07
24234;BME280;12365;43.554;1.388;2022-11-20T08:30:13;100212.19;;;8.98;62.18
24234;BME280;12365;43.554;1.388;2022-11-20T08:32:39;100215.06;;;9.02;62.18
24234;BME280;12365;43.554;1.388;2022-11-20T08:35:04;100229.25;;;9.07;61.93
24234;BME280;12365;43.554;1.388;2022-11-20T08:37:30;100217.59;;;9.16;62.19
24234;BME280;12365;43.554;1.388;2022-11-20T08:39:55;100217.34;;;9.26;62.09
24234;BME280;12365;43.554;1.388;2022-11-20T08:42:22;100219.25;;;9.43;62.19
24234;BME280;12365;43.554;1.388;2022-11-20T08:44:47;100210.56;;;9.58;61.94
24234;BME280;12365;43.554;1.388;2022-11-20T08:47:12;100211.06;;;9.67;61.89
24234;BME280;12365;43.554;1.388;2022-11-20T08:49:38;100233.34;;;9.76;61.78
24234;BME280;12365;43.554;1.388;2022-11-20T08:52:03;100226.88;;;9.85;61.80
24234;BME280;12365;43.554;1.388;2022-11-20T08:54:29;100235.97;;;9.91;61.90
24234;BME280;12365;43.554;1.388;2022-11-20T08:56:54;100239.47;;;9.92;61.73
24234;BME280;12365;43.554;1.388;2022-11-20T08:59:19;100235.78;;;9.88;61.74
24234;BME280;12365;43.554;1.388;2022-11-20T09:01:45;100242.22;;;9.95;61.50
24234;BME280;12365;43.554;1.388;2022-11-20T09:04:10;100241.25;;;10.08;61.41
24234;BME280;12365;43.554;1.388;2022-11-20T09:06:36;100246.41;;;10.23;61.53
24234;BME280;12365;43.554;1.388;2022-11-20T09:09:02;100255.97;;;10.37;61.38
24234;BME280;12365;43.554;1.388;2022-11-20T09:11:27;100253.16;;;10.49;61.34
24234;BME280;12365;43.554;1.388;2022-11-20T09:13:53;100253.13;;;10.63;61.45
24234;BME280;12365;43.554;1.388;2022-11-20T09:16:18;100264.94;;;10.73;60.92
24234;BME280;12365;43.554;1.388;2022-11-20T09:18:43;100262.31;;;10.73;60.61
24234;BME280;12365;43.554;1.388;2022-11-20T09:21:11;100266.09;;;10.78;61.06
24234;BME280;12365;43.554;1.388;2022-11-20T09:23:38;100267.59;;;10.90;61.08
24234;BME280;12365;43.554;1.388;2022-11-20T09:26:05;100263.09;;;11.03;60.73
24234;BME280;12365;43.554;1.388;2022-11-20T09:28:31;100270.69;;;11.15;60.56
24234;BME280;12365;43.554;1.388;2022-11-20T09:30:56;100280.81;;;11.25;60.59
24234;BME280;12365;43.554;1.388;2022-11-20T09:33:22;100280.38;;;11.34;60.65
24234;BME280;12365;43.554;1.388;2022-11-20T09:35:47;100266.28;;;11.47;60.47
24234;BME280;12365;43.554;1.388;2022-11-20T09:38:13;100254.81;;;11.61;60.21
24234;BME280;12365;43.554;1.388;2022-11-20T09:41:03;100239.91;;;11.77;60.30
24234;BME280;12365;43.554;1.388;2022-11-20T09:54:40;100206.03;;;12.32;59.48
24234;BME280;12365;43.554;1.388;2022-11-20T09:57:12;100203.56;;;12.35;59.40
24234;BME280;12365;43.554;1.388;2022-11-20T09:59:43;100202.06;;;12.40;59.25
24234;BME280;12365;43.554;1.388;2022-11-20T10:05:00;100196.34;;;12.67;59.21
24234;BME280;12365;43.554;1.388;2022-11-20T10:07:30;100206.41;;;12.77;58.74
24234;BME280;12365;43.554;1.388;2022-11-20T10:09:58;100213.72;;;12.84;58.81
24234;BME280;12365;43.554;1.388;2022-11-20T10:18:02;100219.91;;;13.25;58.42
24234;BME280;12365;43.554;1.388;2022-11-20T10:20:43;100220.63;;;13.40;58.16
24234;BME280;12365;43.554;1.388;2022-11-20T10:31:40;100217.13;;;13.82;57.64
24234;BME280;12365;43.554;1.388;2022-11-20T10:37:00;100211.91;;;14.03;57.35
24234;BME280;12365;43.554;1.388;2022-11-20T10:42:55;100195.16;;;14.22;56.89
24234;BME280;12365;43.554;1.388;2022-11-20T10:47:50;100194.78;;;14.35;56.63
24234;BME280;12365;43.554;1.388;2022-11-20T10:50:19;100187.22;;;14.43;56.48
24234;BME280;12365;43.554;1.388;2022-11-20T10:55:53;100183.91;;;14.69;56.22
24234;BME280;12365;43.554;1.388;2022-11-20T11:01:04;100161.97;;;14.91;55.89
24234;BME280;12365;43.554;1.388;2022-11-20T11:03:31;100160.22;;;14.92;55.74
24234;BME280;12365;43.554;1.388;2022-11-20T11:08:40;100145.84;;;15.06;55.59
24234;BME280;12365;43.554;1.388;2022-11-20T11:11:29;100147.16;;;15.19;55.54
24234;BME280;12365;43.554;1.388;2022-11-20T11:14:08;100142.47;;;15.10;55.41
24234;BME280;12365;43.554;1.388;2022-11-20T11:16:34;100144.50;;;15.17;55.31
24234;BME280;12365;43.554;1.388;2022-11-20T11:19:11;100138.19;;;15.38;55.06
24234;BME280;12365;43.554;1.388;2022-11-20T11:21:37;100145.72;;;15.53;54.96
24234;BME280;12365;43.554;1.388;2022-11-20T11:24:18;100141.75;;;15.66;54.84
24234;BME280;12365;43.554;1.388;2022-11-20T11:27:00;100139.75;;;15.84;54.55
24234;BME280;12365;43.554;1.388;2022-11-20T11:29:31;100136.78;;;16.00;54.23
24234;BME280;12365;43.554;1.388;2022-11-20T11:32:10;100119.47;;;16.09;54.14
24234;BME280;12365;43.554;1.388;2022-11-20T11:34:36;100117.56;;;16.03;54.14
24234;BME280;12365;43.554;1.388;2022-11-20T11:37:02;100114.13;;;16.06;53.93
24234;BME280;12365;43.554;1.388;2022-11-20T11:39:31;100109.53;;;16.00;53.68
24234;BME280;12365;43.554;1.388;2022-11-20T11:42:00;100107.38;;;15.87;53.70
24234;BME280;12365;43.554;1.388;2022-11-20T11:58:45;100097.94;;;16.22;53.19
24234;BME280;12365;43.554;1.388;2022-11-20T12:06:41;100090.25;;;15.99;53.07
24234;BME280;12365;43.554;1.388;2022-11-20T12:09:10;100088.16;;;15.89;53.39
24234;BME280;12365;43.554;1.388;2022-11-20T12:14:37;100076.38;;;16.35;53.03
24234;BME280;12365;43.554;1.388;2022-11-20T12:17:03;100067.75;;;16.39;52.84
24234;BME280;12365;43.554;1.388;2022-11-20T12:19:33;100064.97;;;16.35;52.77
24234;BME280;12365;43.554;1.388;2022-11-20T12:27:48;100068.41;;;16.32;52.95
24234;BME280;12365;43.554;1.388;2022-11-20T12:30:21;100062.13;;;16.27;52.97
24234;BME280;12365;43.554;1.388;2022-11-20T12:43:23;100044.47;;;15.94;53.29
24234;BME280;12365;43.554;1.388;2022-11-20T12:46:43;100049.56;;;15.88;53.12
24234;BME280;12365;43.554;1.388;2022-11-20T12:49:31;100055.56;;;15.84;53.41
24234;BME280;12365;43.554;1.388;2022-11-20T12:52:45;100069.47;;;15.80;53.57
24234;BME280;12365;43.554;1.388;2022-11-20T12:55:16;100063.91;;;15.71;53.67
24234;BME280;12365;43.554;1.388;2022-11-20T13:00:18;100051.47;;;15.12;54.21
24234;BME280;12365;43.554;1.388;2022-11-20T13:05:33;100067.25;;;14.88;54.94
24234;BME280;12365;43.554;1.388;2022-11-20T13:08:00;100066.06;;;14.79;55.35
24234;BME280;12365;43.554;1.388;2022-11-20T13:10:39;100057.09;;;14.73;55.59
24234;BME280;12365;43.554;1.388;2022-11-20T13:13:26;100054.19;;;14.66;55.89
24234;BME280;12365;43.554;1.388;2022-11-20T13:16:15;100052.16;;;14.57;56.09
24234;BME280;12365;43.554;1.388;2022-11-20T13:18:43;100047.47;;;14.50;56.46
24234;BME280;12365;43.554;1.388;2022-11-20T13:21:18;100045.53;;;14.44;56.72
24234;BME280;12365;43.554;1.388;2022-11-20T13:23:44;100041.06;;;14.42;56.90
24234;BME280;12365;43.554;1.388;2022-11-20T13:26:19;100035.81;;;14.42;57.08
24234;BME280;12365;43.554;1.388;2022-11-20T13:28:47;100038.31;;;14.39;57.30
24234;BME280;12365;43.554;1.388;2022-11-20T13:31:30;100030.56;;;14.42;57.32
24234;BME280;12365;43.554;1.388;2022-11-20T13:33:56;100031.41;;;14.41;57.64
24234;BME280;12365;43.554;1.388;2022-11-20T13:36:25;100034.84;;;14.40;57.78
24234;BME280;12365;43.554;1.388;2022-11-20T13:38:53;100034.53;;;14.30;57.90
24234;BME280;12365;43.554;1.388;2022-11-20T13:41:33;100037.28;;;14.35;58.27
24234;BME280;12365;43.554;1.388;2022-11-20T13:46:45;100037.53;;;14.41;58.08
24234;BME280;12365;43.554;1.388;2022-11-20T13:49:38;100034.94;;;14.43;58.35
24234;BME280;12365;43.554;1.388;2022-11-20T14:02:37;100014.88;;;14.67;59.02
24234;BME280;12365;43.554;1.388;2022-11-20T14:05:03;100014.97;;;14.70;58.94
24234;BME280;12365;43.554;1.388;2022-11-20T14:07:39;100009.88;;;14.75;59.24
24234;BME280;12365;43.554;1.388;2022-11-20T14:10:21;100009.25;;;14.82;59.50
24234;BME280;12365;43.554;1.388;2022-11-20T14:12:47;100000.66;;;14.86;59.61
24234;BME280;12365;43.554;1.388;2022-11-20T14:15:33;100003.53;;;14.94;59.63
24234;BME280;12365;43.554;1.388;2022-11-20T14:18:11;100009.97;;;15.04;59.74
24234;BME280;12365;43.554;1.388;2022-11-20T14:20:37;100020.91;;;15.16;59.62
24234;BME280;12365;43.554;1.388;2022-11-20T14:23:03;100012.69;;;15.32;59.71
24234;BME280;12365;43.554;1.388;2022-11-20T14:25:30;100012.38;;;15.50;59.72
24234;BME280;12365;43.554;1.388;2022-11-20T14:28:01;100008.50;;;15.66;59.87
24234;BME280;12365;43.554;1.388;2022-11-20T14:30:29;100002.78;;;15.79;59.82
24234;BME280;12365;43.554;1.388;2022-11-20T14:33:02;99997.88;;;15.90;59.98
24234;BME280;12365;43.554;1.388;2022-11-20T14:35:30;100002.44;;;15.97;60.02
24234;BME280;12365;43.554;1.388;2022-11-20T14:37:57;99993.00;;;16.04;59.77
24234;BME280;12365;43.554;1.388;2022-11-20T14:40:31;99982.69;;;16.12;60.21
24234;BME280;12365;43.554;1.388;2022-11-20T14:43:00;99984.56;;;16.16;59.86
24234;BME280;12365;43.554;1.388;2022-11-20T14:45:26;99990.72;;;16.16;60.16
24234;BME280;12365;43.554;1.388;2022-11-20T14:47:53;99990.72;;;16.16;60.21
24234;BME280;12365;43.554;1.388;2022-11-20T14:50:25;99991.63;;;16.17;60.24
24234;BME280;12365;43.554;1.388;2022-11-20T14:53:01;100010.03;;;16.17;60.13
24234;BME280;12365;43.554;1.388;2022-11-20T14:55:37;100011.72;;;16.15;60.29